Terminal Aerodrome Forecast
Issued by NWS

Home | Current Version | Previous Version | Text Only | Print | Product List | Glossary On
Versions: 1 2 3 4 5 6 7 8 9 10 11 12 13 14 15 16 17 18 19 20 21 22 23 24 25 26
903
FTUS46 KLOX 082347
TAFLGB
TAF
KLGB 082347Z 0900/0924 30008KT P6SM SKC
     FM090400 VRB03KT P6SM BKN060
     FM090800 VRB03KT P6SM BKN025 BKN050
     FM092000 26008KT P6SM OVC040=

USA.gov is the U.S. government's official web portal to all federal, state and local government web resources and services.